sensor_id;sensor_type;location;lat;lon;timestamp;P1;durP1;ratioP1;P2;durP2;ratioP2
72586;SDS011;60621;49.576;11.024;2023-05-10T00:00:17;9.55;;;4.95;;
72586;SDS011;60621;49.576;11.024;2023-05-10T00:01:19;7.63;;;4.53;;
72586;SDS011;60621;49.576;11.024;2023-05-10T00:02:21;6.78;;;4.03;;
72586;SDS011;60621;49.576;11.024;2023-05-10T00:03:22;6.60;;;3.92;;
72586;SDS011;60621;49.576;11.024;2023-05-10T00:04:25;6.55;;;3.95;;
72586;SDS011;60621;49.576;11.024;2023-05-10T00:05:28;5.88;;;3.60;;
72586;SDS011;60621;49.576;11.024;2023-05-10T00:06:30;6.55;;;3.83;;
72586;SDS011;60621;49.576;11.024;2023-05-10T00:07:31;6.85;;;4.13;;
72586;SDS011;60621;49.576;11.024;2023-05-10T00:08:33;6.20;;;4.20;;
72586;SDS011;60621;49.576;11.024;2023-05-10T00:09:34;6.22;;;3.85;;
72586;SDS011;60621;49.576;11.024;2023-05-10T00:10:36;8.05;;;4.38;;
72586;SDS011;60621;49.576;11.024;2023-05-10T00:11:38;7.07;;;4.22;;
72586;SDS011;60621;49.576;11.024;2023-05-10T00:12:40;6.63;;;3.72;;
72586;SDS011;60621;49.576;11.024;2023-05-10T00:13:41;5.82;;;3.75;;
72586;SDS011;60621;49.576;11.024;2023-05-10T00:14:43;8.27;;;4.75;;
72586;SDS011;60621;49.576;11.024;2023-05-10T00:15:45;7.03;;;4.20;;
72586;SDS011;60621;49.576;11.024;2023-05-10T00:16:46;7.03;;;4.15;;
72586;SDS011;60621;49.576;11.024;2023-05-10T00:17:48;8.48;;;4.32;;
72586;SDS011;60621;49.576;11.024;2023-05-10T00:18:49;7.53;;;3.72;;
72586;SDS011;60621;49.576;11.024;2023-05-10T00:19:51;7.43;;;4.28;;
72586;SDS011;60621;49.576;11.024;2023-05-10T00:20:53;7.05;;;4.30;;
72586;SDS011;60621;49.576;11.024;2023-05-10T00:21:54;8.13;;;4.20;;
72586;SDS011;60621;49.576;11.024;2023-05-10T00:22:56;6.97;;;4.60;;
72586;SDS011;60621;49.576;11.024;2023-05-10T00:23:57;6.25;;;3.88;;
72586;SDS011;60621;49.576;11.024;2023-05-10T00:24:59;6.45;;;4.05;;
72586;SDS011;60621;49.576;11.024;2023-05-10T00:26:00;6.82;;;4.32;;
72586;SDS011;60621;49.576;11.024;2023-05-10T00:27:03;6.82;;;4.60;;
72586;SDS011;60621;49.576;11.024;2023-05-10T00:28:05;7.45;;;4.50;;
72586;SDS011;60621;49.576;11.024;2023-05-10T00:29:06;8.85;;;4.43;;
72586;SDS011;60621;49.576;11.024;2023-05-10T00:30:08;7.10;;;4.45;;
72586;SDS011;60621;49.576;11.024;2023-05-10T00:31:10;8.40;;;4.40;;
72586;SDS011;60621;49.576;11.024;2023-05-10T00:32:11;6.85;;;4.07;;
72586;SDS011;60621;49.576;11.024;2023-05-10T00:33:15;7.20;;;4.35;;
72586;SDS011;60621;49.576;11.024;2023-05-10T00:34:16;7.65;;;4.70;;
72586;SDS011;60621;49.576;11.024;2023-05-10T00:35:18;7.60;;;4.45;;
72586;SDS011;60621;49.576;11.024;2023-05-10T00:36:20;7.70;;;4.43;;
72586;SDS011;60621;49.576;11.024;2023-05-10T00:37:22;7.80;;;4.78;;
72586;SDS011;60621;49.576;11.024;2023-05-10T00:38:23;7.63;;;4.10;;
72586;SDS011;60621;49.576;11.024;2023-05-10T00:39:25;6.55;;;4.30;;
72586;SDS011;60621;49.576;11.024;2023-05-10T00:40:29;7.90;;;4.30;;
72586;SDS011;60621;49.576;11.024;2023-05-10T00:41:31;7.43;;;4.57;;
72586;SDS011;60621;49.576;11.024;2023-05-10T00:42:33;7.32;;;4.50;;
72586;SDS011;60621;49.576;11.024;2023-05-10T00:43:35;7.45;;;4.50;;
72586;SDS011;60621;49.576;11.024;2023-05-10T00:44:37;7.03;;;4.60;;
72586;SDS011;60621;49.576;11.024;2023-05-10T00:45:39;7.55;;;4.93;;
72586;SDS011;60621;49.576;11.024;2023-05-10T00:46:41;7.68;;;4.70;;
72586;SDS011;60621;49.576;11.024;2023-05-10T00:47:43;7.78;;;4.82;;
72586;SDS011;60621;49.576;11.024;2023-05-10T00:48:44;9.77;;;4.72;;
72586;SDS011;60621;49.576;11.024;2023-05-10T00:49:46;8.15;;;4.68;;
72586;SDS011;60621;49.576;11.024;2023-05-10T00:50:48;7.70;;;4.60;;
72586;SDS011;60621;49.576;11.024;2023-05-10T00:51:50;7.97;;;4.97;;
72586;SDS011;60621;49.576;11.024;2023-05-10T00:52:52;7.90;;;4.53;;
72586;SDS011;60621;49.576;11.024;2023-05-10T00:53:54;7.40;;;4.55;;
72586;SDS011;60621;49.576;11.024;2023-05-10T00:54:57;8.10;;;4.82;;
72586;SDS011;60621;49.576;11.024;2023-05-10T00:55:58;7.53;;;4.72;;
72586;SDS011;60621;49.576;11.024;2023-05-10T00:57:00;8.18;;;4.72;;
72586;SDS011;60621;49.576;11.024;2023-05-10T00:58:02;6.72;;;4.57;;
72586;SDS011;60621;49.576;11.024;2023-05-10T00:59:04;7.53;;;4.95;;
72586;SDS011;60621;49.576;11.024;2023-05-10T01:00:06;10.25;;;5.05;;
72586;SDS011;60621;49.576;11.024;2023-05-10T01:01:09;9.40;;;5.60;;
72586;SDS011;60621;49.576;11.024;2023-05-10T01:02:11;8.77;;;4.72;;
72586;SDS011;60621;49.576;11.024;2023-05-10T01:03:14;6.88;;;4.57;;
72586;SDS011;60621;49.576;11.024;2023-05-10T01:04:16;8.60;;;5.15;;
72586;SDS011;60621;49.576;11.024;2023-05-10T01:05:17;7.68;;;4.93;;
72586;SDS011;60621;49.576;11.024;2023-05-10T01:06:19;9.65;;;4.80;;
72586;SDS011;60621;49.576;11.024;2023-05-10T01:07:20;8.73;;;4.90;;
72586;SDS011;60621;49.576;11.024;2023-05-10T01:08:22;7.85;;;5.05;;
72586;SDS011;60621;49.576;11.024;2023-05-10T01:09:24;7.93;;;4.75;;
72586;SDS011;60621;49.576;11.024;2023-05-10T01:10:27;9.32;;;5.05;;
72586;SDS011;60621;49.576;11.024;2023-05-10T01:11:29;8.07;;;5.00;;
72586;SDS011;60621;49.576;11.024;2023-05-10T01:12:31;8.38;;;5.20;;
72586;SDS011;60621;49.576;11.024;2023-05-10T01:13:36;8.63;;;5.00;;
72586;SDS011;60621;49.576;11.024;2023-05-10T01:14:40;9.10;;;5.40;;
72586;SDS011;60621;49.576;11.024;2023-05-10T01:15:42;8.77;;;4.93;;
72586;SDS011;60621;49.576;11.024;2023-05-10T01:16:44;9.40;;;5.70;;
72586;SDS011;60621;49.576;11.024;2023-05-10T01:17:47;8.95;;;4.80;;
72586;SDS011;60621;49.576;11.024;2023-05-10T01:18:50;9.02;;;5.45;;
72586;SDS011;60621;49.576;11.024;2023-05-10T01:19:52;9.23;;;5.25;;
72586;SDS011;60621;49.576;11.024;2023-05-10T01:21:08;8.70;;;5.20;;
72586;SDS011;60621;49.576;11.024;2023-05-10T01:29:11;11.95;;;5.40;;
72586;SDS011;60621;49.576;11.024;2023-05-10T01:33:19;9.95;;;5.28;;
72586;SDS011;60621;49.576;11.024;2023-05-10T01:34:30;9.50;;;5.85;;
72586;SDS011;60621;49.576;11.024;2023-05-10T01:36:15;9.45;;;5.68;;
72586;SDS011;60621;49.576;11.024;2023-05-10T01:37:15;9.98;;;5.50;;
72586;SDS011;60621;49.576;11.024;2023-05-10T01:39:43;9.00;;;5.53;;
72586;SDS011;60621;49.576;11.024;2023-05-10T01:40:52;9.98;;;5.80;;
72586;SDS011;60621;49.576;11.024;2023-05-10T01:42:09;8.85;;;5.22;;
72586;SDS011;60621;49.576;11.024;2023-05-10T01:43:21;8.65;;;5.22;;
72586;SDS011;60621;49.576;11.024;2023-05-10T01:44:31;9.35;;;5.78;;
72586;SDS011;60621;49.576;11.024;2023-05-10T01:45:39;9.15;;;5.70;;
72586;SDS011;60621;49.576;11.024;2023-05-10T01:46:49;10.25;;;5.65;;
72586;SDS011;60621;49.576;11.024;2023-05-10T01:48:03;10.43;;;5.78;;
72586;SDS011;60621;49.576;11.024;2023-05-10T01:49:09;8.88;;;5.72;;
72586;SDS011;60621;49.576;11.024;2023-05-10T01:50:18;10.10;;;5.80;;
72586;SDS011;60621;49.576;11.024;2023-05-10T01:51:25;11.63;;;5.90;;
72586;SDS011;60621;49.576;11.024;2023-05-10T01:52:42;8.05;;;5.07;;
72586;SDS011;60621;49.576;11.024;2023-05-10T01:53:46;9.07;;;5.47;;
72586;SDS011;60621;49.576;11.024;2023-05-10T01:54:53;8.70;;;5.70;;
72586;SDS011;60621;49.576;11.024;2023-05-10T01:55:57;10.02;;;5.82;;
72586;SDS011;60621;49.576;11.024;2023-05-10T01:57:01;9.73;;;5.75;;
72586;SDS011;60621;49.576;11.024;2023-05-10T01:58:08;10.68;;;6.47;;
72586;SDS011;60621;49.576;11.024;2023-05-10T01:59:12;10.13;;;6.13;;
72586;SDS011;60621;49.576;11.024;2023-05-10T02:00:18;10.40;;;6.03;;
72586;SDS011;60621;49.576;11.024;2023-05-10T02:01:21;9.32;;;6.22;;
72586;SDS011;60621;49.576;11.024;2023-05-10T02:02:23;10.57;;;6.30;;
72586;SDS011;60621;49.576;11.024;2023-05-10T02:03:27;10.50;;;6.38;;
72586;SDS011;60621;49.576;11.024;2023-05-10T02:04:30;9.65;;;6.32;;
72586;SDS011;60621;49.576;11.024;2023-05-10T02:05:34;10.77;;;6.10;;
72586;SDS011;60621;49.576;11.024;2023-05-10T02:06:38;10.15;;;6.07;;
72586;SDS011;60621;49.576;11.024;2023-05-10T02:07:41;10.07;;;5.78;;
72586;SDS011;60621;49.576;11.024;2023-05-10T02:08:43;9.30;;;6.32;;
72586;SDS011;60621;49.576;11.024;2023-05-10T02:09:47;10.27;;;6.00;;
72586;SDS011;60621;49.576;11.024;2023-05-10T02:10:51;10.32;;;5.90;;
72586;SDS011;60621;49.576;11.024;2023-05-10T02:11:57;9.52;;;5.80;;
72586;SDS011;60621;49.576;11.024;2023-05-10T02:13:01;11.10;;;6.10;;
72586;SDS011;60621;49.576;11.024;2023-05-10T02:14:05;10.45;;;6.30;;
72586;SDS011;60621;49.576;11.024;2023-05-10T02:15:11;9.68;;;6.32;;
72586;SDS011;60621;49.576;11.024;2023-05-10T02:16:14;10.70;;;6.45;;
72586;SDS011;60621;49.576;11.024;2023-05-10T02:17:18;9.40;;;6.10;;
72586;SDS011;60621;49.576;11.024;2023-05-10T02:18:21;10.35;;;5.78;;
72586;SDS011;60621;49.576;11.024;2023-05-10T02:19:25;10.55;;;6.80;;
72586;SDS011;60621;49.576;11.024;2023-05-10T02:20:29;9.70;;;5.90;;
72586;SDS011;60621;49.576;11.024;2023-05-10T02:21:33;9.07;;;5.97;;
72586;SDS011;60621;49.576;11.024;2023-05-10T02:22:36;9.88;;;5.88;;
72586;SDS011;60621;49.576;11.024;2023-05-10T02:23:39;11.20;;;6.35;;
72586;SDS011;60621;49.576;11.024;2023-05-10T02:24:42;9.95;;;5.88;;
72586;SDS011;60621;49.576;11.024;2023-05-10T02:25:46;11.25;;;6.40;;
72586;SDS011;60621;49.576;11.024;2023-05-10T02:26:51;10.05;;;6.15;;
72586;SDS011;60621;49.576;11.024;2023-05-10T02:27:57;10.70;;;5.88;;
72586;SDS011;60621;49.576;11.024;2023-05-10T02:29:01;10.82;;;7.05;;
72586;SDS011;60621;49.576;11.024;2023-05-10T02:30:05;11.02;;;5.93;;
72586;SDS011;60621;49.576;11.024;2023-05-10T02:31:08;11.23;;;6.13;;
72586;SDS011;60621;49.576;11.024;2023-05-10T02:32:11;8.90;;;5.80;;
72586;SDS011;60621;49.576;11.024;2023-05-10T02:33:14;10.80;;;6.20;;
72586;SDS011;60621;49.576;11.024;2023-05-10T02:34:16;10.60;;;6.10;;
72586;SDS011;60621;49.576;11.024;2023-05-10T02:35:18;9.98;;;6.55;;
72586;SDS011;60621;49.576;11.024;2023-05-10T02:36:20;10.00;;;6.47;;
72586;SDS011;60621;49.576;11.024;2023-05-10T02:37:23;10.00;;;6.22;;
72586;SDS011;60621;49.576;11.024;2023-05-10T02:39:28;10.60;;;6.10;;
72586;SDS011;60621;49.576;11.024;2023-05-10T02:40:33;10.85;;;6.00;;
72586;SDS011;60621;49.576;11.024;2023-05-10T02:41:36;10.40;;;6.43;;
72586;SDS011;60621;49.576;11.024;2023-05-10T02:42:39;9.48;;;5.90;;
72586;SDS011;60621;49.576;11.024;2023-05-10T02:43:43;9.68;;;5.82;;
72586;SDS011;60621;49.576;11.024;2023-05-10T02:44:47;9.50;;;5.97;;
72586;SDS011;60621;49.576;11.024;2023-05-10T02:47:12;10.02;;;6.20;;
72586;SDS011;60621;49.576;11.024;2023-05-10T02:48:14;10.48;;;6.47;;
72586;SDS011;60621;49.576;11.024;2023-05-10T02:49:16;10.85;;;6.05;;
72586;SDS011;60621;49.576;11.024;2023-05-10T02:50:19;10.20;;;6.20;;
72586;SDS011;60621;49.576;11.024;2023-05-10T02:51:24;12.20;;;5.82;;
72586;SDS011;60621;49.576;11.024;2023-05-10T02:52:30;9.80;;;5.82;;
72586;SDS011;60621;49.576;11.024;2023-05-10T02:53:40;9.80;;;5.13;;
72586;SDS011;60621;49.576;11.024;2023-05-10T02:54:45;9.82;;;5.28;;
72586;SDS011;60621;49.576;11.024;2023-05-10T02:55:52;8.82;;;4.80;;
72586;SDS011;60621;49.576;11.024;2023-05-10T02:56:58;8.70;;;5.20;;
72586;SDS011;60621;49.576;11.024;2023-05-10T02:58:02;7.85;;;4.60;;
72586;SDS011;60621;49.576;11.024;2023-05-10T02:59:04;8.02;;;4.60;;
72586;SDS011;60621;49.576;11.024;2023-05-10T03:00:06;7.63;;;4.15;;
72586;SDS011;60621;49.576;11.024;2023-05-10T03:01:08;6.20;;;3.35;;
72586;SDS011;60621;49.576;11.024;2023-05-10T03:02:10;5.60;;;2.42;;
72586;SDS011;60621;49.576;11.024;2023-05-10T03:03:13;4.32;;;2.00;;
72586;SDS011;60621;49.576;11.024;2023-05-10T03:04:15;4.40;;;2.03;;
72586;SDS011;60621;49.576;11.024;2023-05-10T03:05:16;4.32;;;2.20;;
72586;SDS011;60621;49.576;11.024;2023-05-10T03:06:18;4.18;;;1.83;;
72586;SDS011;60621;49.576;11.024;2023-05-10T03:07:19;4.45;;;1.80;;
72586;SDS011;60621;49.576;11.024;2023-05-10T03:08:22;4.15;;;1.70;;
72586;SDS011;60621;49.576;11.024;2023-05-10T03:09:25;3.33;;;1.60;;
72586;SDS011;60621;49.576;11.024;2023-05-10T03:10:27;3.47;;;1.45;;
72586;SDS011;60621;49.576;11.024;2023-05-10T03:11:37;3.95;;;1.90;;
72586;SDS011;60621;49.576;11.024;2023-05-10T03:12:47;4.65;;;1.60;;
72586;SDS011;60621;49.576;11.024;2023-05-10T03:15:33;3.30;;;1.40;;
72586;SDS011;60621;49.576;11.024;2023-05-10T03:16:56;3.90;;;1.67;;
72586;SDS011;60621;49.576;11.024;2023-05-10T03:18:02;4.07;;;1.58;;
72586;SDS011;60621;49.576;11.024;2023-05-10T03:19:21;3.80;;;1.50;;
72586;SDS011;60621;49.576;11.024;2023-05-10T03:22:04;3.35;;;1.30;;
72586;SDS011;60621;49.576;11.024;2023-05-10T03:24:36;3.25;;;1.30;;
72586;SDS011;60621;49.576;11.024;2023-05-10T03:25:41;3.17;;;1.30;;
72586;SDS011;60621;49.576;11.024;2023-05-10T03:26:44;3.85;;;1.23;;
72586;SDS011;60621;49.576;11.024;2023-05-10T03:27:46;3.20;;;1.27;;
72586;SDS011;60621;49.576;11.024;2023-05-10T03:28:50;3.35;;;1.20;;
72586;SDS011;60621;49.576;11.024;2023-05-10T03:29:54;3.00;;;1.10;;
72586;SDS011;60621;49.576;11.024;2023-05-10T03:30:57;3.00;;;1.10;;
72586;SDS011;60621;49.576;11.024;2023-05-10T03:33:07;3.85;;;1.10;;
72586;SDS011;60621;49.576;11.024;2023-05-10T03:34:09;3.10;;;1.10;;
72586;SDS011;60621;49.576;11.024;2023-05-10T03:35:11;3.70;;;1.20;;
72586;SDS011;60621;49.576;11.024;2023-05-10T03:36:15;2.70;;;1.10;;
72586;SDS011;60621;49.576;11.024;2023-05-10T03:37:17;2.95;;;1.13;;
72586;SDS011;60621;49.576;11.024;2023-05-10T03:38:19;2.90;;;1.00;;
72586;SDS011;60621;49.576;11.024;2023-05-10T03:39:20;3.13;;;1.23;;
72586;SDS011;60621;49.576;11.024;2023-05-10T03:40:22;3.22;;;1.15;;
72586;SDS011;60621;49.576;11.024;2023-05-10T03:41:25;2.75;;;1.10;;
72586;SDS011;60621;49.576;11.024;2023-05-10T03:42:26;2.53;;;1.00;;
72586;SDS011;60621;49.576;11.024;2023-05-10T03:43:28;3.28;;;1.10;;
72586;SDS011;60621;49.576;11.024;2023-05-10T03:44:29;2.72;;;1.05;;
72586;SDS011;60621;49.576;11.024;2023-05-10T03:45:31;3.70;;;1.02;;
72586;SDS011;60621;49.576;11.024;2023-05-10T03:46:32;3.42;;;1.25;;
72586;SDS011;60621;49.576;11.024;2023-05-10T03:47:34;2.70;;;1.00;;
72586;SDS011;60621;49.576;11.024;2023-05-10T03:48:36;3.08;;;1.30;;
72586;SDS011;60621;49.576;11.024;2023-05-10T03:49:38;3.55;;;1.20;;
72586;SDS011;60621;49.576;11.024;2023-05-10T03:50:39;2.95;;;1.08;;
72586;SDS011;60621;49.576;11.024;2023-05-10T03:51:41;2.83;;;1.13;;
72586;SDS011;60621;49.576;11.024;2023-05-10T03:52:42;3.60;;;1.30;;
72586;SDS011;60621;49.576;11.024;2023-05-10T03:53:44;3.45;;;1.02;;
72586;SDS011;60621;49.576;11.024;2023-05-10T03:54:46;3.42;;;1.20;;
72586;SDS011;60621;49.576;11.024;2023-05-10T03:55:47;3.10;;;1.10;;
72586;SDS011;60621;49.576;11.024;2023-05-10T03:56:49;2.63;;;1.10;;
72586;SDS011;60621;49.576;11.024;2023-05-10T03:57:52;3.17;;;1.20;;
72586;SDS011;60621;49.576;11.024;2023-05-10T03:58:55;4.40;;;1.10;;
72586;SDS011;60621;49.576;11.024;2023-05-10T03:59:56;3.63;;;1.20;;
72586;SDS011;60621;49.576;11.024;2023-05-10T04:00:58;2.80;;;1.10;;
72586;SDS011;60621;49.576;11.024;2023-05-10T04:02:00;3.67;;;1.05;;
72586;SDS011;60621;49.576;11.024;2023-05-10T04:03:02;2.85;;;1.10;;
72586;SDS011;60621;49.576;11.024;2023-05-10T04:04:04;2.63;;;1.00;;
72586;SDS011;60621;49.576;11.024;2023-05-10T04:05:05;3.47;;;1.10;;
72586;SDS011;60621;49.576;11.024;2023-05-10T04:06:07;2.15;;;0.98;;
72586;SDS011;60621;49.576;11.024;2023-05-10T04:07:10;2.88;;;1.05;;
72586;SDS011;60621;49.576;11.024;2023-05-10T04:08:12;2.22;;;0.85;;
72586;SDS011;60621;49.576;11.024;2023-05-10T04:09:13;2.33;;;0.90;;
72586;SDS011;60621;49.576;11.024;2023-05-10T04:10:15;2.92;;;0.93;;
72586;SDS011;60621;49.576;11.024;2023-05-10T04:11:18;2.22;;;0.90;;
72586;SDS011;60621;49.576;11.024;2023-05-10T04:12:19;2.30;;;0.90;;
72586;SDS011;60621;49.576;11.024;2023-05-10T04:13:21;5.10;;;1.10;;
72586;SDS011;60621;49.576;11.024;2023-05-10T04:14:23;1.90;;;0.90;;
72586;SDS011;60621;49.576;11.024;2023-05-10T04:15:25;3.30;;;1.00;;
72586;SDS011;60621;49.576;11.024;2023-05-10T04:16:27;2.60;;;1.00;;
72586;SDS011;60621;49.576;11.024;2023-05-10T04:17:29;2.38;;;0.82;;
72586;SDS011;60621;49.576;11.024;2023-05-10T04:18:30;2.78;;;1.00;;
72586;SDS011;60621;49.576;11.024;2023-05-10T04:19:33;2.70;;;0.90;;
72586;SDS011;60621;49.576;11.024;2023-05-10T04:20:34;2.30;;;0.82;;
72586;SDS011;60621;49.576;11.024;2023-05-10T04:21:36;2.78;;;0.98;;
72586;SDS011;60621;49.576;11.024;2023-05-10T04:22:38;2.22;;;0.80;;
72586;SDS011;60621;49.576;11.024;2023-05-10T04:23:40;2.85;;;0.80;;
72586;SDS011;60621;49.576;11.024;2023-05-10T04:24:42;2.40;;;0.80;;
72586;SDS011;60621;49.576;11.024;2023-05-10T04:25:43;2.80;;;0.80;;
72586;SDS011;60621;49.576;11.024;2023-05-10T04:26:45;1.85;;;0.70;;
72586;SDS011;60621;49.576;11.024;2023-05-10T04:27:46;2.45;;;0.90;;
72586;SDS011;60621;49.576;11.024;2023-05-10T04:28:48;2.40;;;0.88;;
72586;SDS011;60621;49.576;11.024;2023-05-10T04:29:49;2.33;;;0.80;;
72586;SDS011;60621;49.576;11.024;2023-05-10T04:30:51;2.20;;;0.80;;
72586;SDS011;60621;49.576;11.024;2023-05-10T04:31:53;2.95;;;0.80;;
72586;SDS011;60621;49.576;11.024;2023-05-10T04:32:56;1.90;;;0.80;;
72586;SDS011;60621;49.576;11.024;2023-05-10T04:33:57;2.50;;;0.90;;
72586;SDS011;60621;49.576;11.024;2023-05-10T04:34:59;3.00;;;0.85;;
72586;SDS011;60621;49.576;11.024;2023-05-10T04:36:01;2.40;;;0.80;;
72586;SDS011;60621;49.576;11.024;2023-05-10T04:37:05;2.20;;;0.80;;
72586;SDS011;60621;49.576;11.024;2023-05-10T04:38:07;2.33;;;0.82;;
72586;SDS011;60621;49.576;11.024;2023-05-10T04:39:09;2.25;;;0.90;;
72586;SDS011;60621;49.576;11.024;2023-05-10T04:40:11;3.45;;;1.00;;
72586;SDS011;60621;49.576;11.024;2023-05-10T04:41:13;2.47;;;0.80;;
72586;SDS011;60621;49.576;11.024;2023-05-10T04:42:14;2.53;;;0.93;;
72586;SDS011;60621;49.576;11.024;2023-05-10T04:43:16;2.80;;;1.05;;
72586;SDS011;60621;49.576;11.024;2023-05-10T04:44:18;3.05;;;0.90;;
72586;SDS011;60621;49.576;11.024;2023-05-10T04:45:19;1.80;;;0.80;;
72586;SDS011;60621;49.576;11.024;2023-05-10T04:46:21;1.95;;;0.70;;
72586;SDS011;60621;49.576;11.024;2023-05-10T04:47:22;2.33;;;0.88;;
72586;SDS011;60621;49.576;11.024;2023-05-10T04:48:24;2.65;;;0.82;;
72586;SDS011;60621;49.576;11.024;2023-05-10T04:49:26;2.58;;;0.80;;
72586;SDS011;60621;49.576;11.024;2023-05-10T04:50:27;2.63;;;0.85;;
72586;SDS011;60621;49.576;11.024;2023-05-10T04:51:29;1.92;;;0.80;;
72586;SDS011;60621;49.576;11.024;2023-05-10T04:52:31;2.13;;;0.80;;
72586;SDS011;60621;49.576;11.024;2023-05-10T04:53:33;2.50;;;1.00;;
72586;SDS011;60621;49.576;11.024;2023-05-10T04:54:34;2.58;;;0.90;;
72586;SDS011;60621;49.576;11.024;2023-05-10T04:55:36;2.35;;;0.90;;
72586;SDS011;60621;49.576;11.024;2023-05-10T04:56:38;2.08;;;0.90;;
72586;SDS011;60621;49.576;11.024;2023-05-10T04:57:39;3.00;;;0.98;;
72586;SDS011;60621;49.576;11.024;2023-05-10T04:58:41;1.92;;;0.80;;
72586;SDS011;60621;49.576;11.024;2023-05-10T04:59:42;2.50;;;0.90;;
72586;SDS011;60621;49.576;11.024;2023-05-10T05:00:44;3.22;;;1.00;;
72586;SDS011;60621;49.576;11.024;2023-05-10T05:01:45;2.35;;;0.85;;
72586;SDS011;60621;49.576;11.024;2023-05-10T05:02:48;2.63;;;0.90;;
72586;SDS011;60621;49.576;11.024;2023-05-10T05:03:50;2.10;;;0.80;;
72586;SDS011;60621;49.576;11.024;2023-05-10T05:04:55;2.95;;;0.93;;
72586;SDS011;60621;49.576;11.024;2023-05-10T05:05:58;4.13;;;1.00;;
72586;SDS011;60621;49.576;11.024;2023-05-10T05:07:00;3.28;;;1.00;;
72586;SDS011;60621;49.576;11.024;2023-05-10T05:08:02;2.42;;;0.82;;
72586;SDS011;60621;49.576;11.024;2023-05-10T05:09:03;2.95;;;1.00;;
72586;SDS011;60621;49.576;11.024;2023-05-10T05:10:06;2.20;;;0.90;;
72586;SDS011;60621;49.576;11.024;2023-05-10T05:11:08;3.67;;;1.10;;
72586;SDS011;60621;49.576;11.024;2023-05-10T05:12:10;2.75;;;0.98;;
72586;SDS011;60621;49.576;11.024;2023-05-10T05:13:15;2.92;;;1.00;;
72586;SDS011;60621;49.576;11.024;2023-05-10T05:14:17;2.63;;;1.00;;
72586;SDS011;60621;49.576;11.024;2023-05-10T05:15:18;3.83;;;0.93;;
72586;SDS011;60621;49.576;11.024;2023-05-10T05:16:20;1.98;;;0.80;;
72586;SDS011;60621;49.576;11.024;2023-05-10T05:17:21;1.95;;;0.80;;
72586;SDS011;60621;49.576;11.024;2023-05-10T05:18:23;3.25;;;1.00;;
72586;SDS011;60621;49.576;11.024;2023-05-10T05:19:24;2.40;;;0.93;;
72586;SDS011;60621;49.576;11.024;2023-05-10T05:20:26;4.25;;;1.02;;
72586;SDS011;60621;49.576;11.024;2023-05-10T05:21:27;3.45;;;1.10;;
72586;SDS011;60621;49.576;11.024;2023-05-10T05:22:30;3.22;;;0.93;;
72586;SDS011;60621;49.576;11.024;2023-05-10T05:23:31;3.38;;;1.10;;
72586;SDS011;60621;49.576;11.024;2023-05-10T05:24:36;2.90;;;1.10;;
72586;SDS011;60621;49.576;11.024;2023-05-10T05:25:39;3.45;;;1.00;;
72586;SDS011;60621;49.576;11.024;2023-05-10T05:26:40;2.90;;;1.00;;
72586;SDS011;60621;49.576;11.024;2023-05-10T05:27:42;3.10;;;0.85;;
72586;SDS011;60621;49.576;11.024;2023-05-10T05:28:44;2.80;;;1.13;;
72586;SDS011;60621;49.576;11.024;2023-05-10T05:29:45;2.80;;;1.15;;
72586;SDS011;60621;49.576;11.024;2023-05-10T05:30:47;3.08;;;1.00;;
72586;SDS011;60621;49.576;11.024;2023-05-10T05:31:48;3.55;;;1.10;;
72586;SDS011;60621;49.576;11.024;2023-05-10T05:32:50;2.72;;;1.10;;
72586;SDS011;60621;49.576;11.024;2023-05-10T05:33:52;2.50;;;1.00;;
72586;SDS011;60621;49.576;11.024;2023-05-10T05:34:53;2.65;;;1.05;;
72586;SDS011;60621;49.576;11.024;2023-05-10T05:35:55;2.55;;;1.00;;
72586;SDS011;60621;49.576;11.024;2023-05-10T05:36:56;2.97;;;1.02;;
72586;SDS011;60621;49.576;11.024;2023-05-10T05:37:58;4.93;;;1.20;;
72586;SDS011;60621;49.576;11.024;2023-05-10T05:38:59;3.45;;;1.10;;
72586;SDS011;60621;49.576;11.024;2023-05-10T05:40:01;4.00;;;1.10;;
72586;SDS011;60621;49.576;11.024;2023-05-10T05:41:02;2.50;;;1.00;;
72586;SDS011;60621;49.576;11.024;2023-05-10T05:42:04;2.72;;;1.00;;
72586;SDS011;60621;49.576;11.024;2023-05-10T05:43:06;3.20;;;1.02;;
72586;SDS011;60621;49.576;11.024;2023-05-10T05:44:07;3.20;;;1.20;;
72586;SDS011;60621;49.576;11.024;2023-05-10T05:45:09;3.25;;;1.10;;
72586;SDS011;60621;49.576;11.024;2023-05-10T05:46:14;3.17;;;1.00;;
72586;SDS011;60621;49.576;11.024;2023-05-10T05:47:16;2.60;;;1.00;;
72586;SDS011;60621;49.576;11.024;2023-05-10T05:48:18;2.80;;;0.90;;
72586;SDS011;60621;49.576;11.024;2023-05-10T05:49:19;2.33;;;0.82;;
72586;SDS011;60621;49.576;11.024;2023-05-10T05:50:21;3.10;;;1.20;;
72586;SDS011;60621;49.576;11.024;2023-05-10T05:51:23;2.88;;;1.08;;
72586;SDS011;60621;49.576;11.024;2023-05-10T05:52:24;4.03;;;1.35;;
72586;SDS011;60621;49.576;11.024;2023-05-10T05:53:26;3.05;;;1.02;;
72586;SDS011;60621;49.576;11.024;2023-05-10T05:54:28;3.20;;;1.20;;
72586;SDS011;60621;49.576;11.024;2023-05-10T05:55:29;3.58;;;1.20;;
72586;SDS011;60621;49.576;11.024;2023-05-10T05:57:34;3.58;;;1.20;;
72586;SDS011;60621;49.576;11.024;2023-05-10T05:58:35;3.00;;;1.10;;
72586;SDS011;60621;49.576;11.024;2023-05-10T05:59:37;3.10;;;1.20;;
72586;SDS011;60621;49.576;11.024;2023-05-10T06:00:43;3.97;;;1.45;;
72586;SDS011;60621;49.576;11.024;2023-05-10T06:01:44;3.00;;;1.20;;
72586;SDS011;60621;49.576;11.024;2023-05-10T06:02:46;3.30;;;1.20;;
72586;SDS011;60621;49.576;11.024;2023-05-10T06:03:48;3.00;;;1.30;;
72586;SDS011;60621;49.576;11.024;2023-05-10T06:04:53;3.63;;;1.25;;
72586;SDS011;60621;49.576;11.024;2023-05-10T06:05:55;3.47;;;1.30;;
72586;SDS011;60621;49.576;11.024;2023-05-10T06:06:56;3.40;;;1.42;;
72586;SDS011;60621;49.576;11.024;2023-05-10T06:07:59;3.10;;;1.17;;
72586;SDS011;60621;49.576;11.024;2023-05-10T06:09:01;5.15;;;1.30;;
72586;SDS011;60621;49.576;11.024;2023-05-10T06:10:03;3.50;;;1.33;;
72586;SDS011;60621;49.576;11.024;2023-05-10T06:11:05;4.07;;;1.33;;
72586;SDS011;60621;49.576;11.024;2023-05-10T06:12:07;4.03;;;1.40;;
72586;SDS011;60621;49.576;11.024;2023-05-10T06:13:09;4.57;;;1.60;;
72586;SDS011;60621;49.576;11.024;2023-05-10T06:14:11;3.60;;;1.30;;
72586;SDS011;60621;49.576;11.024;2023-05-10T06:15:14;3.95;;;1.23;;
72586;SDS011;60621;49.576;11.024;2023-05-10T06:16:16;3.30;;;1.50;;
72586;SDS011;60621;49.576;11.024;2023-05-10T06:17:18;3.65;;;1.40;;
72586;SDS011;60621;49.576;11.024;2023-05-10T06:18:20;3.63;;;1.40;;
72586;SDS011;60621;49.576;11.024;2023-05-10T06:19:22;3.45;;;1.38;;
72586;SDS011;60621;49.576;11.024;2023-05-10T06:20:27;3.40;;;1.40;;
72586;SDS011;60621;49.576;11.024;2023-05-10T06:21:29;3.20;;;1.30;;
72586;SDS011;60621;49.576;11.024;2023-05-10T06:22:31;3.75;;;1.50;;
72586;SDS011;60621;49.576;11.024;2023-05-10T06:23:33;3.30;;;1.40;;
72586;SDS011;60621;49.576;11.024;2023-05-10T06:24:34;3.20;;;1.30;;
72586;SDS011;60621;49.576;11.024;2023-05-10T06:25:36;3.40;;;1.45;;
72586;SDS011;60621;49.576;11.024;2023-05-10T06:26:38;3.58;;;1.27;;
72586;SDS011;60621;49.576;11.024;2023-05-10T06:27:45;3.20;;;1.38;;
72586;SDS011;60621;49.576;11.024;2023-05-10T06:28:55;4.85;;;1.50;;
72586;SDS011;60621;49.576;11.024;2023-05-10T06:29:56;3.88;;;1.70;;
72586;SDS011;60621;49.576;11.024;2023-05-10T06:31:13;6.88;;;3.85;;
72586;SDS011;60621;49.576;11.024;2023-05-10T06:32:14;3.92;;;1.75;;
72586;SDS011;60621;49.576;11.024;2023-05-10T06:33:16;3.67;;;1.60;;
72586;SDS011;60621;49.576;11.024;2023-05-10T06:34:18;5.05;;;1.58;;